createdAt,value
2023-07-26T00:00:37.132Z,17.79
2023-07-26T00:03:04.343Z,17.80
2023-07-26T00:05:32.364Z,17.81
2023-07-26T00:07:59.569Z,17.82
2023-07-26T00:10:26.814Z,17.75
2023-07-26T00:12:54.080Z,17.66
2023-07-26T00:15:21.169Z,17.63
2023-07-26T00:17:48.587Z,17.75
2023-07-26T00:20:15.630Z,17.71
2023-07-26T00:22:42.748Z,17.66
2023-07-26T00:25:10.048Z,17.62
2023-07-26T00:27:37.196Z,17.74
2023-07-26T00:30:07.039Z,17.60
2023-07-26T00:32:34.833Z,17.70
2023-07-26T00:35:04.390Z,17.68
2023-07-26T00:37:32.213Z,17.53
2023-07-26T00:39:59.553Z,17.64
2023-07-26T00:42:26.979Z,17.64
2023-07-26T00:44:54.257Z,17.46
2023-07-26T00:47:21.670Z,17.63
2023-07-26T00:49:51.009Z,17.56
2023-07-26T00:52:18.870Z,17.61
2023-07-26T00:54:46.121Z,17.58
2023-07-26T00:57:14.078Z,17.58
2023-07-26T00:59:41.274Z,17.47
2023-07-26T01:02:08.501Z,17.56
2023-07-26T01:04:35.590Z,17.56
2023-07-26T01:07:13.109Z,17.61
2023-07-26T01:10:17.781Z,17.60
2023-07-26T01:12:55.401Z,17.49
2023-07-26T01:15:30.320Z,17.54
2023-07-26T01:18:17.625Z,17.55
2023-07-26T01:20:45.792Z,17.42
2023-07-26T01:23:12.946Z,17.37
2023-07-26T01:25:40.385Z,17.44
2023-07-26T01:28:07.520Z,17.46
2023-07-26T01:30:35.726Z,17.37
2023-07-26T01:33:06.598Z,17.34
2023-07-26T01:35:36.692Z,17.28
2023-07-26T01:38:05.036Z,17.29
2023-07-26T01:40:33.909Z,17.38
2023-07-26T01:43:02.056Z,17.40
2023-07-26T01:45:29.440Z,17.41
2023-07-26T01:47:56.691Z,17.30
2023-07-26T01:50:24.402Z,17.43
2023-07-26T01:52:52.236Z,17.44
2023-07-26T01:55:19.408Z,17.37
2023-07-26T01:57:47.797Z,17.40
2023-07-26T02:00:15.141Z,17.35
2023-07-26T02:02:42.331Z,17.46
2023-07-26T02:05:11.177Z,17.36
2023-07-26T02:07:39.032Z,17.35
2023-07-26T02:10:06.405Z,17.47
2023-07-26T02:12:33.666Z,17.39
2023-07-26T02:15:01.081Z,17.49
2023-07-26T02:17:33.216Z,17.43
2023-07-26T02:20:20.368Z,17.51
2023-07-26T02:22:47.387Z,17.49
2023-07-26T02:25:14.560Z,17.53
2023-07-26T02:27:41.933Z,17.27
2023-07-26T02:30:09.656Z,17.46
2023-07-26T02:32:36.910Z,17.59
2023-07-26T02:35:04.246Z,17.60
2023-07-26T02:37:31.567Z,17.61
2023-07-26T02:39:58.624Z,17.58
2023-07-26T02:42:28.493Z,17.58
2023-07-26T02:44:55.889Z,17.51
2023-07-26T02:47:23.016Z,17.45
2023-07-26T02:49:50.185Z,17.38
2023-07-26T02:52:17.252Z,17.66
2023-07-26T02:54:44.437Z,17.68
2023-07-26T02:57:11.628Z,17.69
2023-07-26T02:59:38.707Z,17.79
2023-07-26T03:02:06.014Z,17.70
2023-07-26T03:04:33.274Z,17.66
2023-07-26T03:07:01.228Z,17.82
2023-07-26T03:09:28.290Z,17.73
2023-07-26T03:11:55.517Z,17.82
2023-07-26T03:14:22.677Z,17.73
2023-07-26T03:16:49.795Z,17.82
2023-07-26T03:19:16.957Z,17.88
2023-07-26T03:21:43.984Z,17.98
2023-07-26T03:24:11.160Z,17.93
2023-07-26T03:26:38.340Z,18.05
2023-07-26T03:29:05.461Z,18.04
2023-07-26T03:31:32.539Z,18.04
2023-07-26T03:33:59.741Z,18.16
2023-07-26T03:36:27.625Z,18.12
2023-07-26T03:38:54.671Z,18.15
2023-07-26T03:41:21.718Z,18.31
2023-07-26T03:43:48.938Z,18.29
2023-07-26T03:46:16.136Z,18.31
2023-07-26T03:48:43.254Z,18.34
2023-07-26T03:51:10.371Z,18.43
2023-07-26T03:53:37.748Z,18.54
2023-07-26T03:56:05.058Z,18.53
2023-07-26T03:58:33.483Z,18.75
2023-07-26T04:01:00.565Z,18.81
2023-07-26T04:03:27.802Z,18.93
2023-07-26T04:05:55.119Z,18.82
2023-07-26T04:08:22.324Z,19.16
2023-07-26T04:10:49.520Z,19.17
2023-07-26T04:13:17.053Z,19.31
2023-07-26T04:15:44.259Z,19.34
2023-07-26T04:18:11.774Z,19.42
2023-07-26T04:20:38.824Z,19.38
2023-07-26T04:23:06.111Z,19.59
2023-07-26T04:25:33.224Z,19.67
2023-07-26T04:28:00.312Z,19.70
2023-07-26T04:30:27.480Z,19.76
2023-07-26T04:32:54.717Z,20.05
2023-07-26T04:35:21.825Z,20.16
2023-07-26T04:37:48.980Z,20.43
2023-07-26T04:40:16.153Z,20.68
2023-07-26T04:42:43.239Z,20.90
2023-07-26T04:45:10.733Z,21.10
2023-07-26T04:47:37.965Z,21.23
2023-07-26T04:50:05.574Z,21.51
2023-07-26T04:52:34.710Z,21.73
2023-07-26T04:55:01.856Z,21.82
2023-07-26T04:57:31.021Z,22.09
2023-07-26T04:59:58.146Z,22.05
2023-07-26T05:02:25.331Z,21.89
2023-07-26T05:04:52.472Z,22.42
2023-07-26T05:07:19.574Z,22.79
2023-07-26T05:09:46.839Z,23.07
2023-07-26T05:12:14.049Z,23.30
2023-07-26T05:14:42.652Z,23.34
2023-07-26T05:17:09.849Z,23.75
2023-07-26T05:19:37.053Z,24.08
2023-07-26T05:22:04.272Z,24.41
2023-07-26T05:24:31.418Z,24.47
2023-07-26T05:26:59.511Z,24.37
2023-07-26T05:29:26.986Z,24.30
2023-07-26T05:31:54.136Z,24.48
2023-07-26T05:34:21.286Z,24.51
2023-07-26T05:36:48.397Z,24.20
2023-07-26T05:39:15.490Z,24.38
2023-07-26T05:41:42.680Z,24.51
2023-07-26T05:44:09.790Z,24.40
2023-07-26T05:46:36.843Z,24.20
2023-07-26T05:49:03.922Z,24.11
2023-07-26T05:51:31.338Z,24.18
2023-07-26T05:53:58.732Z,24.09
2023-07-26T05:56:25.835Z,24.05
2023-07-26T05:58:53.081Z,23.92
2023-07-26T06:01:20.356Z,23.66
2023-07-26T06:03:47.542Z,23.49
2023-07-26T06:06:14.917Z,23.43
2023-07-26T06:08:42.209Z,23.23
2023-07-26T06:11:09.334Z,23.66
2023-07-26T06:13:36.587Z,23.94
2023-07-26T06:16:03.984Z,24.45
2023-07-26T06:18:31.160Z,24.64
2023-07-26T06:20:58.349Z,24.53
2023-07-26T06:23:25.359Z,24.47
2023-07-26T06:25:52.569Z,24.79
2023-07-26T06:28:19.653Z,25.48
2023-07-26T06:30:46.757Z,25.84
2023-07-26T06:33:13.923Z,26.24
2023-07-26T06:35:41.106Z,26.76
2023-07-26T06:38:10.316Z,26.62
2023-07-26T06:40:37.463Z,26.54
2023-07-26T06:43:04.636Z,27.03
2023-07-26T06:45:31.829Z,27.26
2023-07-26T06:47:59.162Z,28.02
2023-07-26T06:50:26.319Z,28.33
2023-07-26T06:52:53.418Z,28.92
2023-07-26T06:55:20.513Z,29.67
2023-07-26T06:57:47.698Z,30.19
2023-07-26T07:00:17.115Z,30.55
2023-07-26T07:02:44.343Z,30.47
2023-07-26T07:05:12.828Z,30.33
2023-07-26T07:07:39.943Z,29.90
2023-07-26T07:10:07.620Z,29.67
2023-07-26T07:12:34.778Z,29.46
2023-07-26T07:15:01.926Z,29.45
2023-07-26T07:17:33.428Z,29.42
2023-07-26T07:20:00.721Z,29.34
2023-07-26T07:22:28.611Z,29.29
2023-07-26T07:24:55.851Z,29.27
2023-07-26T07:27:23.066Z,29.39
2023-07-26T07:29:50.676Z,29.22
2023-07-26T07:32:22.227Z,28.96
2023-07-26T07:34:50.723Z,28.66
2023-07-26T07:37:18.002Z,29.21
2023-07-26T07:39:45.148Z,29.41
2023-07-26T07:42:12.318Z,29.52
2023-07-26T07:44:39.663Z,29.25
2023-07-26T07:47:09.598Z,28.47
2023-07-26T07:49:38.956Z,27.52
2023-07-26T07:52:06.621Z,27.36
2023-07-26T07:54:33.744Z,27.14
2023-07-26T07:57:01.111Z,27.28
2023-07-26T07:59:28.279Z,27.15
2023-07-26T08:01:55.335Z,26.98
2023-07-26T08:04:22.541Z,26.55
2023-07-26T08:06:50.216Z,26.45
2023-07-26T08:09:17.455Z,26.15
2023-07-26T08:11:44.572Z,26.24
2023-07-26T08:14:11.653Z,26.33
2023-07-26T08:16:38.905Z,26.46
2023-07-26T08:19:06.091Z,26.40
2023-07-26T08:21:33.507Z,26.36
2023-07-26T08:24:00.706Z,26.41
2023-07-26T08:26:28.038Z,26.52
2023-07-26T08:28:55.132Z,26.38
2023-07-26T08:31:22.322Z,26.12
2023-07-26T08:33:49.489Z,26.25
2023-07-26T08:36:16.600Z,26.26
2023-07-26T08:38:43.711Z,26.16
2023-07-26T08:41:11.358Z,26.04
2023-07-26T08:43:39.272Z,26.10
2023-07-26T08:46:08.664Z,26.26
2023-07-26T08:48:38.114Z,26.15
2023-07-26T08:51:06.711Z,26.06
2023-07-26T08:53:35.019Z,25.67
2023-07-26T08:56:02.437Z,25.54
2023-07-26T08:58:30.039Z,25.55
2023-07-26T09:00:58.929Z,25.49
2023-07-26T09:03:26.328Z,25.44
2023-07-26T09:06:07.918Z,25.57
2023-07-26T09:08:35.547Z,25.53
2023-07-26T09:11:19.245Z,25.49
2023-07-26T09:13:53.067Z,25.32
2023-07-26T09:16:20.974Z,25.31
2023-07-26T09:19:05.762Z,25.19
2023-07-26T09:21:37.529Z,25.14
2023-07-26T09:24:05.562Z,24.94
2023-07-26T09:26:41.133Z,24.96
2023-07-26T09:29:10.115Z,25.17
2023-07-26T09:31:38.324Z,25.01
2023-07-26T09:34:08.248Z,25.01
2023-07-26T09:36:51.601Z,25.10
2023-07-26T09:39:20.670Z,25.18
2023-07-26T09:41:48.319Z,25.15
2023-07-26T09:44:20.455Z,25.04
2023-07-26T09:46:56.641Z,25.38
2023-07-26T09:49:28.827Z,25.35
2023-07-26T09:54:34.214Z,25.41
2023-07-26T09:57:02.527Z,25.46
2023-07-26T09:59:31.678Z,25.48
2023-07-26T10:02:03.889Z,25.53
2023-07-26T10:04:51.588Z,25.56
2023-07-26T10:07:20.026Z,25.60
2023-07-26T10:09:49.221Z,25.47
2023-07-26T10:12:16.731Z,25.64
2023-07-26T10:14:44.074Z,25.57
2023-07-26T10:17:14.402Z,25.51
2023-07-26T10:19:42.961Z,25.46
2023-07-26T10:22:12.323Z,25.44
2023-07-26T10:24:43.632Z,25.36
2023-07-26T10:27:11.483Z,25.15
2023-07-26T10:29:38.804Z,25.31
2023-07-26T10:32:08.262Z,25.15
2023-07-26T10:34:35.927Z,25.06
2023-07-26T10:37:20.385Z,25.21
2023-07-26T10:39:50.484Z,25.03
2023-07-26T10:42:30.642Z,25.16
2023-07-26T10:45:03.687Z,25.27
2023-07-26T10:47:34.048Z,25.46
2023-07-26T10:50:10.752Z,25.51
2023-07-26T10:52:38.907Z,25.37
2023-07-26T10:55:28.404Z,25.38
2023-07-26T10:57:59.166Z,25.36
2023-07-26T11:00:36.355Z,25.27
2023-07-26T11:03:04.423Z,25.09
2023-07-26T11:05:32.046Z,24.46
2023-07-26T11:08:01.939Z,23.57
2023-07-26T11:10:32.959Z,22.83
2023-07-26T11:13:17.217Z,22.37
2023-07-26T11:16:12.037Z,22.08
2023-07-26T11:18:41.554Z,21.70
2023-07-26T11:21:15.572Z,21.72
2023-07-26T11:23:42.796Z,21.47
2023-07-26T11:26:09.977Z,21.20
2023-07-26T11:28:37.203Z,21.15
2023-07-26T11:31:04.450Z,20.80
2023-07-26T11:33:32.899Z,20.76
2023-07-26T11:36:02.296Z,20.50
2023-07-26T11:38:29.958Z,20.59
2023-07-26T11:40:57.630Z,20.52
2023-07-26T11:43:27.393Z,20.56
2023-07-26T11:45:56.720Z,20.66
2023-07-26T11:48:25.984Z,20.67
2023-07-26T11:50:56.893Z,20.66
2023-07-26T11:53:43.112Z,20.47
2023-07-26T11:56:12.485Z,20.65
2023-07-26T11:58:39.848Z,20.75
2023-07-26T12:01:07.559Z,20.85
2023-07-26T12:03:36.968Z,20.91
2023-07-26T12:06:08.880Z,21.11
2023-07-26T12:08:39.117Z,21.35
2023-07-26T12:11:08.146Z,21.71
2023-07-26T12:13:37.398Z,21.94
2023-07-26T12:16:05.632Z,22.15
2023-07-26T12:18:33.413Z,22.50
2023-07-26T12:21:13.105Z,22.79
2023-07-26T12:23:53.348Z,23.02
2023-07-26T12:26:23.309Z,23.20
2023-07-26T12:28:55.539Z,23.29
2023-07-26T12:31:26.481Z,23.37
2023-07-26T12:34:07.911Z,23.53
2023-07-26T12:36:43.847Z,23.82
2023-07-26T12:39:13.146Z,23.96
2023-07-26T12:41:44.235Z,23.77
2023-07-26T12:44:15.411Z,23.76
2023-07-26T12:49:14.323Z,23.80
2023-07-26T12:51:41.626Z,24.12
2023-07-26T12:54:09.606Z,24.13
2023-07-26T12:56:37.287Z,24.22
2023-07-26T12:59:08.674Z,24.14
2023-07-26T13:01:40.264Z,24.05
2023-07-26T13:04:09.271Z,24.16
2023-07-26T13:06:38.012Z,24.14
2023-07-26T13:09:06.454Z,24.22
2023-07-26T13:11:33.975Z,24.26
2023-07-26T13:14:01.522Z,24.46
2023-07-26T13:16:31.804Z,24.89
2023-07-26T13:19:04.185Z,25.89
2023-07-26T13:21:32.552Z,26.16
2023-07-26T13:24:00.387Z,25.80
2023-07-26T13:26:28.613Z,25.59
2023-07-26T13:28:55.983Z,24.93
2023-07-26T13:31:23.246Z,24.74
2023-07-26T13:33:52.077Z,24.49
2023-07-26T13:36:22.441Z,24.47
2023-07-26T13:38:49.654Z,24.31
2023-07-26T13:41:16.956Z,24.17
2023-07-26T13:43:44.126Z,24.04
2023-07-26T13:46:38.273Z,24.08
2023-07-26T13:48:58.364Z,24.03
2023-07-26T13:51:25.665Z,23.99
2023-07-26T13:53:52.913Z,23.99
2023-07-26T13:56:20.146Z,24.13
2023-07-26T13:58:48.975Z,24.39
2023-07-26T14:01:17.798Z,24.58
2023-07-26T14:03:45.330Z,24.58
2023-07-26T14:06:12.584Z,24.48
2023-07-26T14:08:39.756Z,24.68
2023-07-26T14:11:07.175Z,24.93
2023-07-26T14:13:34.467Z,25.40
2023-07-26T14:18:32.452Z,25.65
2023-07-26T14:21:00.159Z,25.49
2023-07-26T14:23:31.428Z,25.18
2023-07-26T14:25:58.844Z,24.90
2023-07-26T14:28:26.239Z,24.93
2023-07-26T14:30:53.488Z,24.87
2023-07-26T14:33:20.939Z,24.84
2023-07-26T14:35:49.020Z,24.84
2023-07-26T14:38:16.401Z,24.77
2023-07-26T14:40:43.540Z,24.84
2023-07-26T14:43:10.726Z,25.04
2023-07-26T14:45:37.978Z,25.14
2023-07-26T14:48:05.463Z,25.17
2023-07-26T14:50:32.837Z,25.24
2023-07-26T14:53:00.380Z,25.34
2023-07-26T14:55:29.823Z,25.23
2023-07-26T14:57:58.158Z,25.25
2023-07-26T15:00:25.760Z,25.11
2023-07-26T15:02:53.178Z,25.18
2023-07-26T15:05:20.378Z,25.33
2023-07-26T15:07:47.862Z,25.33
2023-07-26T15:10:16.378Z,25.16
2023-07-26T15:12:46.583Z,25.26
2023-07-26T15:15:14.446Z,25.22
2023-07-26T15:17:41.624Z,25.09
2023-07-26T15:20:09.940Z,25.06
2023-07-26T15:22:37.213Z,24.99
2023-07-26T15:25:05.033Z,24.98
2023-07-26T15:27:32.875Z,24.87
2023-07-26T15:30:01.248Z,24.87
2023-07-26T15:32:30.239Z,24.57
2023-07-26T15:34:58.034Z,23.82
2023-07-26T15:37:25.102Z,23.46
2023-07-26T15:39:52.375Z,23.37
2023-07-26T15:47:19.882Z,23.62
2023-07-26T15:49:55.885Z,23.51
2023-07-26T15:52:23.720Z,23.63
2023-07-26T15:54:50.807Z,23.71
2023-07-26T15:57:18.028Z,23.69
2023-07-26T15:59:45.102Z,23.59
2023-07-26T16:02:13.554Z,23.60
2023-07-26T16:07:11.301Z,23.50
2023-07-26T16:09:38.332Z,23.35
2023-07-26T16:22:08.784Z,23.53
2023-07-26T16:24:36.136Z,23.21
2023-07-26T16:27:03.257Z,23.42
2023-07-26T16:29:31.597Z,23.45
2023-07-26T16:31:58.952Z,23.32
2023-07-26T16:34:26.304Z,23.31
2023-07-26T16:36:53.412Z,23.24
2023-07-26T16:39:20.567Z,23.13
2023-07-26T16:41:47.803Z,23.11
2023-07-26T16:44:14.829Z,23.18
2023-07-26T16:47:05.260Z,23.10
2023-07-26T16:49:29.325Z,22.78
2023-07-26T16:51:56.483Z,22.97
2023-07-26T16:54:23.943Z,23.04
2023-07-26T16:56:51.060Z,22.92
2023-07-26T16:59:18.309Z,22.94
2023-07-26T17:01:45.679Z,22.92
2023-07-26T17:04:13.954Z,22.89
2023-07-26T17:06:43.098Z,22.75
2023-07-26T17:09:10.372Z,22.77
2023-07-26T17:11:37.464Z,22.75
2023-07-26T17:14:04.675Z,22.60
2023-07-26T17:16:32.453Z,22.76
2023-07-26T17:18:59.984Z,22.80
2023-07-26T17:21:27.000Z,22.77
2023-07-26T17:23:53.987Z,22.73
2023-07-26T17:26:21.090Z,22.72
2023-07-26T17:28:48.982Z,22.65
2023-07-26T17:31:16.122Z,22.54
2023-07-26T17:33:43.321Z,22.56
2023-07-26T17:36:12.387Z,22.46
2023-07-26T17:38:39.726Z,22.37
2023-07-26T17:41:07.364Z,22.14
2023-07-26T17:43:35.682Z,22.06
2023-07-26T17:46:03.667Z,21.97
2023-07-26T17:48:35.875Z,21.84
2023-07-26T17:51:02.937Z,21.84
2023-07-26T17:53:30.969Z,21.73
2023-07-26T17:55:58.045Z,21.83
2023-07-26T17:58:25.079Z,21.67
2023-07-26T18:00:52.168Z,21.68
2023-07-26T18:03:19.278Z,21.59
2023-07-26T18:05:49.022Z,21.51
2023-07-26T18:08:19.016Z,21.66
2023-07-26T18:10:46.153Z,21.63
2023-07-26T18:13:13.227Z,21.56
2023-07-26T18:16:03.081Z,21.39
2023-07-26T18:18:30.554Z,21.46
2023-07-26T18:21:04.805Z,21.32
2023-07-26T18:23:36.052Z,21.38
2023-07-26T18:26:03.565Z,21.34
2023-07-26T18:28:30.710Z,21.31
2023-07-26T18:31:08.511Z,21.29
2023-07-26T18:33:37.533Z,21.25
2023-07-26T18:36:04.830Z,21.33
2023-07-26T18:38:32.029Z,21.26
2023-07-26T18:41:00.085Z,21.29
2023-07-26T18:43:27.390Z,21.21
2023-07-26T18:45:54.453Z,21.11
2023-07-26T18:48:23.320Z,21.21
2023-07-26T18:50:51.788Z,21.18
2023-07-26T18:53:19.174Z,21.06
2023-07-26T18:55:49.812Z,21.09
2023-07-26T18:58:17.451Z,21.02
2023-07-26T19:00:46.002Z,20.91
2023-07-26T19:03:13.516Z,20.90
2023-07-26T19:05:41.371Z,20.92
2023-07-26T19:08:09.336Z,20.89
2023-07-26T19:10:40.823Z,20.90
2023-07-26T19:13:09.498Z,20.85
2023-07-26T19:15:36.922Z,20.80
2023-07-26T19:18:04.272Z,20.70
2023-07-26T19:20:31.509Z,20.78
2023-07-26T19:23:02.032Z,20.64
2023-07-26T19:25:30.334Z,20.73
2023-07-26T19:27:57.420Z,20.67
2023-07-26T19:30:26.779Z,20.67
2023-07-26T19:32:54.077Z,20.58
2023-07-26T19:35:21.415Z,20.59
2023-07-26T19:37:48.504Z,20.53
2023-07-26T19:40:15.617Z,20.64
2023-07-26T19:42:42.707Z,20.66
2023-07-26T19:45:10.341Z,20.60
2023-07-26T19:47:37.359Z,20.62
2023-07-26T19:50:05.045Z,20.51
2023-07-26T19:52:32.199Z,20.54
2023-07-26T19:54:59.499Z,20.52
2023-07-26T19:57:26.735Z,20.49
2023-07-26T19:59:53.835Z,20.43
2023-07-26T20:02:21.002Z,20.45
2023-07-26T20:04:48.195Z,20.34
2023-07-26T20:07:16.290Z,20.15
2023-07-26T20:09:43.373Z,20.22
2023-07-26T20:12:10.709Z,20.16
2023-07-26T20:14:37.943Z,20.05
2023-07-26T20:17:05.422Z,20.08
2023-07-26T20:19:32.452Z,20.04
2023-07-26T20:21:59.437Z,19.95
2023-07-26T20:24:26.560Z,19.87
2023-07-26T20:26:53.629Z,19.93
2023-07-26T20:29:21.416Z,19.89
2023-07-26T20:31:48.666Z,19.82
2023-07-26T20:34:15.758Z,19.78
2023-07-26T20:36:43.015Z,19.71
2023-07-26T20:39:10.100Z,19.66
2023-07-26T20:41:37.186Z,19.55
2023-07-26T20:44:04.292Z,19.50
2023-07-26T20:46:31.558Z,19.50
2023-07-26T20:48:58.637Z,19.49
2023-07-26T20:51:25.704Z,19.43
2023-07-26T20:53:52.802Z,19.33
2023-07-26T20:56:19.863Z,19.28
2023-07-26T20:58:46.956Z,19.49
2023-07-26T21:01:14.108Z,19.48
2023-07-26T21:03:41.507Z,19.44
2023-07-26T21:06:08.688Z,19.33
2023-07-26T21:08:35.666Z,19.31
2023-07-26T21:11:02.878Z,19.32
2023-07-26T21:13:29.944Z,19.16
2023-07-26T21:15:59.458Z,19.22
2023-07-26T21:18:27.155Z,19.34
2023-07-26T21:20:54.532Z,19.28
2023-07-26T21:23:22.146Z,19.38
2023-07-26T21:25:50.538Z,19.42
2023-07-26T21:28:19.148Z,19.39
2023-07-26T21:30:48.848Z,19.36
2023-07-26T21:33:17.180Z,19.43
2023-07-26T21:35:44.731Z,19.35
2023-07-26T21:38:12.498Z,19.19
2023-07-26T21:40:39.531Z,19.21
2023-07-26T21:43:06.876Z,19.29
2023-07-26T21:45:34.017Z,19.27
2023-07-26T21:48:02.947Z,19.23
2023-07-26T21:50:30.684Z,19.21
2023-07-26T21:52:57.706Z,19.22
2023-07-26T21:55:25.182Z,19.17
2023-07-26T21:57:52.265Z,19.19
2023-07-26T22:00:19.502Z,19.12
2023-07-26T22:02:46.769Z,19.04
2023-07-26T22:05:13.851Z,19.01
2023-07-26T22:07:40.974Z,18.72
2023-07-26T22:10:08.493Z,18.97
2023-07-26T22:12:35.690Z,18.98
2023-07-26T22:15:02.976Z,18.99
2023-07-26T22:17:33.149Z,18.97
2023-07-26T22:20:00.180Z,18.95
2023-07-26T22:22:27.520Z,18.82
2023-07-26T22:24:54.814Z,18.88
2023-07-26T22:27:21.886Z,18.78
2023-07-26T22:29:48.963Z,18.73
2023-07-26T22:32:16.292Z,18.68
2023-07-26T22:34:43.618Z,18.63
2023-07-26T22:37:10.770Z,18.66
2023-07-26T22:39:37.892Z,18.56
2023-07-26T22:42:05.422Z,18.63
2023-07-26T22:44:32.441Z,18.56
2023-07-26T22:46:59.535Z,18.53
2023-07-26T22:49:26.685Z,18.49
2023-07-26T22:51:54.001Z,18.29
2023-07-26T22:54:22.182Z,18.42
2023-07-26T22:56:49.370Z,18.41
2023-07-26T22:59:16.705Z,18.41
2023-07-26T23:01:43.774Z,18.34
2023-07-26T23:04:11.050Z,18.39
2023-07-26T23:06:38.154Z,18.39
2023-07-26T23:09:05.306Z,18.37
2023-07-26T23:11:32.696Z,18.41
2023-07-26T23:13:59.946Z,18.43
2023-07-26T23:16:27.096Z,18.41
2023-07-26T23:18:54.072Z,18.32
2023-07-26T23:21:21.129Z,18.44
2023-07-26T23:23:48.258Z,18.49
2023-07-26T23:26:15.314Z,18.37
2023-07-26T23:28:42.350Z,18.49
2023-07-26T23:31:10.632Z,18.37
2023-07-26T23:33:37.773Z,18.48
2023-07-26T23:36:05.031Z,18.42
2023-07-26T23:38:32.090Z,18.34
2023-07-26T23:41:01.138Z,18.37
2023-07-26T23:43:28.117Z,18.30
2023-07-26T23:45:55.161Z,18.30
2023-07-26T23:48:22.456Z,18.25
2023-07-26T23:50:49.531Z,18.25
2023-07-26T23:53:16.570Z,18.17
2023-07-26T23:55:44.810Z,18.06
2023-07-26T23:58:12.088Z,18.15
